MiSS Ellie — WDJ2256 — position and weather

sailwx.info

Track history (hours):
 
Tides and Currents Weather Stations Pressure Air Temp Water Temp Dewpoint Dewpoint Depression Visibility Wind Speed Wind Dir Waves Ship Positions

MiSS Ellie

Owner: Magnolia Marine Transportation Company, Vicksburg, MS. More information available from US FCC via Universal Licensing System and Coast Guard Vessel Documentation Center.

Last reported at 2017-Dec-17 23:00 UTC. Time now 2017-Dec-17 23:28 UTC.
Position N 32°23' W 090°53'.

Length 33 m.

Type: Towing. MMSI: 367756630.

Date/timePositionNaut miles runAvg speedWind from/ knotsBaromVisibWave heightAir tempDewpointWater temp
2017-Dec-17 23:00N 32°23' W 090°53'0 0.0
2017-Dec-17 22:30N 32°23' W 090°53'0 0.0
2017-Dec-17 22:00N 32°23' W 090°53'0 0.0
2017-Dec-17 21:30N 32°23' W 090°53'0 0.0
2017-Dec-17 21:00N 32°23' W 090°53'0 0.0
2017-Dec-17 20:30N 32°23' W 090°53'0 0.0
2017-Dec-17 20:00N 32°23' W 090°53'0 0.0
2017-Dec-17 19:30N 32°23' W 090°53'0 0.0
2017-Dec-17 19:00N 32°23' W 090°53'0 0.0
2017-Dec-17 18:30N 32°23' W 090°53'0 0.5
2017-Dec-17 18:00N 32°23' W 090°53'0 0.5
2017-Dec-17 17:30N 32°23' W 090°53'0 0.0
2017-Dec-17 17:00N 32°23' W 090°53'0 0.0
2017-Dec-17 16:30N 32°23' W 090°53'0 0.0
2017-Dec-17 16:00N 32°23' W 090°53'0 0.0
2017-Dec-17 15:30N 32°23' W 090°53'0 0.0
2017-Dec-17 15:00N 32°23' W 090°53'0 0.0
2017-Dec-17 14:30N 32°23' W 090°53'1 1.8
2017-Dec-17 14:00N 32°23' W 090°54'0 0.1
2017-Dec-17 13:30N 32°23' W 090°54'0 0.0
2017-Dec-17 13:00N 32°23' W 090°54'0 0.0
2017-Dec-17 12:30N 32°23' W 090°54'0 0.0
2017-Dec-17 12:00N 32°23' W 090°54'0 0.0
2017-Dec-17 11:30N 32°23' W 090°54'0 1.0
2017-Dec-17 11:00N 32°23' W 090°53'1 1.0
2017-Dec-17 10:30N 32°23' W 090°53'0 0.0
2017-Dec-17 10:00N 32°23' W 090°53'0 0.0
2017-Dec-17 09:30N 32°23' W 090°53'0 0.0
2017-Dec-17 09:00N 32°23' W 090°53'0 0.0
2017-Dec-17 08:30N 32°23' W 090°53'0 0.0
2017-Dec-17 08:00N 32°23' W 090°53'0 0.0
2017-Dec-17 07:30N 32°23' W 090°53'0 0.0
2017-Dec-17 07:00N 32°23' W 090°53'0 0.0
2017-Dec-17 06:30N 32°23' W 090°53'0 0.0
2017-Dec-17 06:00N 32°23' W 090°53'0 0.0
2017-Dec-17 05:30N 32°23' W 090°53'0 0.0
2017-Dec-17 05:00N 32°23' W 090°53'0 0.0
2017-Dec-17 04:30N 32°23' W 090°53'0 0.0
2017-Dec-17 04:00N 32°23' W 090°53'0 0.0
2017-Dec-17 03:30N 32°23' W 090°53'0 0.0
2017-Dec-17 03:00N 32°23' W 090°53'0 0.0
2017-Dec-17 02:30N 32°23' W 090°53'1 1.9
2017-Dec-17 02:00N 32°23' W 090°54'1 2.3
2017-Dec-17 01:30N 32°23' W 090°53'0 0.2
2017-Dec-17 01:00N 32°23' W 090°53'1 2.6
2017-Dec-17 00:30N 32°22' W 090°53'2 4.7
2017-Dec-17 00:00N 32°19' W 090°54'4 7.7
2017-Dec-16 23:30N 32°17' W 090°57'3 6.9
2017-Dec-16 23:00N 32°14' W 090°59'4 7.5
2017-Dec-16 22:30N 32°10' W 091°00'3 6.1
2017-Dec-16 21:58N 32°07' W 091°02'3 7.1
2017-Dec-16 21:30N 32°08' W 091°06'5 6.8
2017-Dec-16 20:47N 32°04' W 091°03'142 2.8
2017-Dec-14 18:28N 29°50' W 091°59'3 6.6
2017-Dec-14 18:00N 29°49' W 092°02'3 6.1
2017-Dec-14 17:30N 29°48' W 092°05'3 6.3
2017-Dec-14 17:00N 29°47' W 092°09'3 5.1
2017-Dec-14 16:30N 29°47' W 092°12'4 7.3
2017-Dec-14 16:00N 29°48' W 092°16'12 6.2
2017-Dec-14 14:09N 29°54' W 092°27'1 6.7
2017-Dec-14 13:59N 29°54' W 092°29'6 6.8
2017-Dec-14 13:09N 29°55' W 092°35'1 6.9
2017-Dec-14 13:00N 29°55' W 092°36'3 6.3
2017-Dec-14 12:29N 29°56' W 092°40'3 6.8
2017-Dec-14 12:00N 29°57' W 092°43'23 6.4
2017-Dec-14 08:25N 29°56' W 093°10'3 6.3
2017-Dec-14 08:00N 29°58' W 093°12'3 5.1
2017-Dec-14 07:30N 30°00' W 093°14'2 4.2
2017-Dec-14 06:59N 30°02' W 093°15'2 4.0
2017-Dec-14 06:30N 30°04' W 093°16'2 3.3
2017-Dec-14 06:00N 30°05' W 093°17'1 1.4
2017-Dec-14 05:30N 30°05' W 093°18'1 1.9
2017-Dec-14 05:00N 30°06' W 093°18'0 0.9
2017-Dec-14 04:30N 30°06' W 093°19'0 0.0
2017-Dec-14 04:00N 30°06' W 093°19'0 0.0
2017-Dec-14 03:30N 30°06' W 093°19'0 0.0
2017-Dec-14 03:00N 30°06' W 093°19'0 0.0
2017-Dec-14 02:30N 30°06' W 093°19'0 0.0
2017-Dec-14 02:00N 30°06' W 093°19'0 0.0
2017-Dec-14 01:30N 30°06' W 093°19'0 0.0
2017-Dec-14 01:00N 30°06' W 093°19'0 0.1
2017-Dec-14 00:30N 30°06' W 093°19'0 0.1
2017-Dec-14 00:00N 30°06' W 093°19'0 0.0
2017-Dec-13 23:30N 30°06' W 093°19'0 0.0
2017-Dec-13 23:00N 30°06' W 093°19'0 0.1
2017-Dec-13 22:30N 30°06' W 093°19'0 0.0
2017-Dec-13 22:00N 30°06' W 093°19'0 0.0
2017-Dec-13 21:30N 30°06' W 093°19'0 0.1
2017-Dec-13 21:00N 30°06' W 093°19'0 0.1
2017-Dec-13 20:30N 30°06' W 093°19'0 0.0
2017-Dec-13 20:00N 30°06' W 093°19'0 0.0
2017-Dec-13 19:30N 30°06' W 093°19'0 0.0
2017-Dec-13 19:00N 30°06' W 093°19'1 2.3
2017-Dec-13 18:30N 30°05' W 093°20'3 5.1
2017-Dec-13 18:00N 30°04' W 093°22'3 6.6
2017-Dec-13 17:30N 30°04' W 093°26'4 7.0
2017-Dec-13 17:00N 30°04' W 093°30'4 7.0
2017-Dec-13 16:30N 30°04' W 093°34'4 7.4
2017-Dec-13 15:58N 30°04' W 093°39'1 2.0
2017-Dec-13 15:30N 30°04' W 093°40'4 7.6
2017-Dec-13 15:00N 30°03' W 093°44'8 8.5
2017-Dec-13 14:07N 29°58' W 093°51'2 9.1
2017-Dec-13 13:53N 29°56' W 093°52'3 9.2
2017-Dec-13 13:30N 29°53' W 093°55'55 5.1
2017-Dec-13 02:36N 29°28' W 094°51'1 9.3
2017-Dec-13 02:28N 29°29' W 094°52'4 9.6
2017-Dec-13 02:00N 29°33' W 094°54'5 9.4
2017-Dec-13 01:30N 29°37' W 094°57'4 8.9
2017-Dec-13 01:00N 29°41' W 094°59'4 8.1
2017-Dec-13 00:29N 29°44' W 095°03'3 1.3
2017-Dec-12 21:47N 29°47' W 095°04'0 0.0
2017-Dec-12 21:30N 29°47' W 095°04'0 0.0
2017-Dec-12 21:00N 29°47' W 095°04'1 0.4
2017-Dec-12 17:23N 29°46' W 095°05'0 0.0
2017-Dec-11 01:23N 29°46' W 095°05'2 0.1
2017-Dec-09 11:56N 29°48' W 095°04'1 0.2
2017-Dec-09 06:32N 29°47' W 095°04'0 0.9
2017-Dec-09 06:24N 29°47' W 095°04'0 0.1
2017-Dec-09 05:59N 29°47' W 095°04'0 0.1
2017-Dec-09 05:28N 29°47' W 095°04'1 1.0
2017-Dec-09 04:57N 29°46' W 095°05'2 3.5
2017-Dec-09 04:30N 29°45' W 095°04'4 7.4
2017-Dec-09 03:59N 29°42' W 095°01'4 8.7
2017-Dec-09 03:30N 29°39' W 094°58'5 9.3
2017-Dec-09 03:00N 29°35' W 094°56'  
Track history (hours):
 
Tides and Currents Weather Stations Pressure Air Temp Water Temp Dewpoint Dewpoint Depression Visibility Wind Speed Wind Dir Waves Ship Positions

MiSS Ellie

Owner: Magnolia Marine Transportation Company, Vicksburg, MS. More information available from US FCC via Universal Licensing System and Coast Guard Vessel Documentation Center.

Last reported at 2017-Dec-17 23:00 UTC. Time now 2017-Dec-17 23:28 UTC.
Position N 32°23' W 090°53'.

Length 33 m.

Type: Towing. MMSI: 367756630.

Date/timePositionNaut miles runAvg speedWind from/ knotsBaromVisibWave heightAir tempDewpointWater temp
2017-Dec-17 23:00N 32°23' W 090°53'0 0.0
2017-Dec-17 22:30N 32°23' W 090°53'0 0.0
2017-Dec-17 22:00N 32°23' W 090°53'0 0.0
2017-Dec-17 21:30N 32°23' W 090°53'0 0.0
2017-Dec-17 21:00N 32°23' W 090°53'0 0.0
2017-Dec-17 20:30N 32°23' W 090°53'0 0.0
2017-Dec-17 20:00N 32°23' W 090°53'0 0.0
2017-Dec-17 19:30N 32°23' W 090°53'0 0.0
2017-Dec-17 19:00N 32°23' W 090°53'0 0.0
2017-Dec-17 18:30N 32°23' W 090°53'0 0.5
2017-Dec-17 18:00N 32°23' W 090°53'0 0.5
2017-Dec-17 17:30N 32°23' W 090°53'0 0.0
2017-Dec-17 17:00N 32°23' W 090°53'0 0.0
2017-Dec-17 16:30N 32°23' W 090°53'0 0.0
2017-Dec-17 16:00N 32°23' W 090°53'0 0.0
2017-Dec-17 15:30N 32°23' W 090°53'0 0.0
2017-Dec-17 15:00N 32°23' W 090°53'0 0.0
2017-Dec-17 14:30N 32°23' W 090°53'1 1.8
2017-Dec-17 14:00N 32°23' W 090°54'0 0.1
2017-Dec-17 13:30N 32°23' W 090°54'0 0.0
2017-Dec-17 13:00N 32°23' W 090°54'0 0.0
2017-Dec-17 12:30N 32°23' W 090°54'0 0.0
2017-Dec-17 12:00N 32°23' W 090°54'0 0.0
2017-Dec-17 11:30N 32°23' W 090°54'0 1.0
2017-Dec-17 11:00N 32°23' W 090°53'1 1.0
2017-Dec-17 10:30N 32°23' W 090°53'0 0.0
2017-Dec-17 10:00N 32°23' W 090°53'0 0.0
2017-Dec-17 09:30N 32°23' W 090°53'0 0.0
2017-Dec-17 09:00N 32°23' W 090°53'0 0.0
2017-Dec-17 08:30N 32°23' W 090°53'0 0.0
2017-Dec-17 08:00N 32°23' W 090°53'0 0.0
2017-Dec-17 07:30N 32°23' W 090°53'0 0.0
2017-Dec-17 07:00N 32°23' W 090°53'0 0.0
2017-Dec-17 06:30N 32°23' W 090°53'0 0.0
2017-Dec-17 06:00N 32°23' W 090°53'0 0.0
2017-Dec-17 05:30N 32°23' W 090°53'0 0.0
2017-Dec-17 05:00N 32°23' W 090°53'0 0.0
2017-Dec-17 04:30N 32°23' W 090°53'0 0.0
2017-Dec-17 04:00N 32°23' W 090°53'0 0.0
2017-Dec-17 03:30N 32°23' W 090°53'0 0.0
2017-Dec-17 03:00N 32°23' W 090°53'0 0.0
2017-Dec-17 02:30N 32°23' W 090°53'1 1.9
2017-Dec-17 02:00N 32°23' W 090°54'1 2.3
2017-Dec-17 01:30N 32°23' W 090°53'0 0.2
2017-Dec-17 01:00N 32°23' W 090°53'1 2.6
2017-Dec-17 00:30N 32°22' W 090°53'2 4.7
2017-Dec-17 00:00N 32°19' W 090°54'4 7.7
2017-Dec-16 23:30N 32°17' W 090°57'3 6.9
2017-Dec-16 23:00N 32°14' W 090°59'4 7.5
2017-Dec-16 22:30N 32°10' W 091°00'3 6.1
2017-Dec-16 21:58N 32°07' W 091°02'3 7.1
2017-Dec-16 21:30N 32°08' W 091°06'5 6.8
2017-Dec-16 20:47N 32°04' W 091°03'142 2.8
2017-Dec-14 18:28N 29°50' W 091°59'3 6.6
2017-Dec-14 18:00N 29°49' W 092°02'3 6.1
2017-Dec-14 17:30N 29°48' W 092°05'3 6.3
2017-Dec-14 17:00N 29°47' W 092°09'3 5.1
2017-Dec-14 16:30N 29°47' W 092°12'4 7.3
2017-Dec-14 16:00N 29°48' W 092°16'12 6.2
2017-Dec-14 14:09N 29°54' W 092°27'1 6.7
2017-Dec-14 13:59N 29°54' W 092°29'6 6.8
2017-Dec-14 13:09N 29°55' W 092°35'1 6.9
2017-Dec-14 13:00N 29°55' W 092°36'3 6.3
2017-Dec-14 12:29N 29°56' W 092°40'3 6.8
2017-Dec-14 12:00N 29°57' W 092°43'23 6.4
2017-Dec-14 08:25N 29°56' W 093°10'3 6.3
2017-Dec-14 08:00N 29°58' W 093°12'3 5.1
2017-Dec-14 07:30N 30°00' W 093°14'2 4.2
2017-Dec-14 06:59N 30°02' W 093°15'2 4.0
2017-Dec-14 06:30N 30°04' W 093°16'2 3.3
2017-Dec-14 06:00N 30°05' W 093°17'1 1.4
2017-Dec-14 05:30N 30°05' W 093°18'1 1.9
2017-Dec-14 05:00N 30°06' W 093°18'0 0.9
2017-Dec-14 04:30N 30°06' W 093°19'0 0.0
2017-Dec-14 04:00N 30°06' W 093°19'0 0.0
2017-Dec-14 03:30N 30°06' W 093°19'0 0.0
2017-Dec-14 03:00N 30°06' W 093°19'0 0.0
2017-Dec-14 02:30N 30°06' W 093°19'0 0.0
2017-Dec-14 02:00N 30°06' W 093°19'0 0.0
2017-Dec-14 01:30N 30°06' W 093°19'0 0.0
2017-Dec-14 01:00N 30°06' W 093°19'0 0.1
2017-Dec-14 00:30N 30°06' W 093°19'0 0.1
2017-Dec-14 00:00N 30°06' W 093°19'0 0.0
2017-Dec-13 23:30N 30°06' W 093°19'0 0.0
2017-Dec-13 23:00N 30°06' W 093°19'0 0.1
2017-Dec-13 22:30N 30°06' W 093°19'0 0.0
2017-Dec-13 22:00N 30°06' W 093°19'0 0.0
2017-Dec-13 21:30N 30°06' W 093°19'0 0.1
2017-Dec-13 21:00N 30°06' W 093°19'0 0.1
2017-Dec-13 20:30N 30°06' W 093°19'0 0.0
2017-Dec-13 20:00N 30°06' W 093°19'0 0.0
2017-Dec-13 19:30N 30°06' W 093°19'0 0.0
2017-Dec-13 19:00N 30°06' W 093°19'1 2.3
2017-Dec-13 18:30N 30°05' W 093°20'3 5.1
2017-Dec-13 18:00N 30°04' W 093°22'3 6.6
2017-Dec-13 17:30N 30°04' W 093°26'4 7.0
2017-Dec-13 17:00N 30°04' W 093°30'4 7.0
2017-Dec-13 16:30N 30°04' W 093°34'4 7.4
2017-Dec-13 15:58N 30°04' W 093°39'1 2.0
2017-Dec-13 15:30N 30°04' W 093°40'4 7.6
2017-Dec-13 15:00N 30°03' W 093°44'8 8.5
2017-Dec-13 14:07N 29°58' W 093°51'2 9.1
2017-Dec-13 13:53N 29°56' W 093°52'3 9.2
2017-Dec-13 13:30N 29°53' W 093°55'55 5.1
2017-Dec-13 02:36N 29°28' W 094°51'1 9.3
2017-Dec-13 02:28N 29°29' W 094°52'4 9.6
2017-Dec-13 02:00N 29°33' W 094°54'5 9.4
2017-Dec-13 01:30N 29°37' W 094°57'4 8.9
2017-Dec-13 01:00N 29°41' W 094°59'4 8.1
2017-Dec-13 00:29N 29°44' W 095°03'3 1.3
2017-Dec-12 21:47N 29°47' W 095°04'0 0.0
2017-Dec-12 21:30N 29°47' W 095°04'0 0.0
2017-Dec-12 21:00N 29°47' W 095°04'1 0.4
2017-Dec-12 17:23N 29°46' W 095°05'0 0.0
2017-Dec-11 01:23N 29°46' W 095°05'2 0.1
2017-Dec-09 11:56N 29°48' W 095°04'1 0.2
2017-Dec-09 06:32N 29°47' W 095°04'0 0.9
2017-Dec-09 06:24N 29°47' W 095°04'0 0.1
2017-Dec-09 05:59N 29°47' W 095°04'0 0.1
2017-Dec-09 05:28N 29°47' W 095°04'1 1.0
2017-Dec-09 04:57N 29°46' W 095°05'2 3.5
2017-Dec-09 04:30N 29°45' W 095°04'4 7.4
2017-Dec-09 03:59N 29°42' W 095°01'4 8.7
2017-Dec-09 03:30N 29°39' W 094°58'5 9.3
2017-Dec-09 03:00N 29°35' W 094°56'  

Dump ship's entire track history